Time;durP1;ratioP1;P1;durP2;ratioP2;P2;SDS_P1;SDS_P2;PMS_P1;PMS_P2;Temp;Humidity;BMP_temperature;BMP_pressure;BME280_temperature;BME280_humidity;BME280_pressure;Samples;Min_cycle;Max_cycle;Signal;HPM_P1;HPM_P2
2022/06/10 00:05:19;;;;;;;0.52;0.28;;;17.60;53.40;19.80;94463.00;;;;10354993;28;45144;-68
2022/06/10 00:10:41;;;;;;;0.77;0.30;;;17.60;53.40;19.70;94475.00;;;;10354855;28;45837;-68
2022/06/10 00:16:04;;;;;;;0.60;0.40;;;17.60;53.40;19.70;94454.00;;;;10354409;28;45167;-68
2022/06/10 00:21:25;;;;;;;0.65;0.40;;;17.60;53.30;19.70;94462.00;;;;10354253;28;45100;-69
2022/06/10 00:26:45;;;;;;;1.98;0.40;;;17.60;53.40;19.70;94466.00;;;;10354062;28;45304;-68
2022/06/10 00:32:08;;;;;;;1.15;0.30;;;17.60;53.40;19.70;94467.00;;;;10356043;28;45203;-69
2022/06/10 00:37:29;;;;;;;1.20;0.40;;;17.50;53.40;19.70;94451.00;;;;10361081;28;45225;-69
2022/06/10 00:42:50;;;;;;;0.90;0.30;;;17.50;53.40;19.70;94461.00;;;;10361033;28;45178;-68
2022/06/10 00:48:19;;;;;;;1.45;0.43;;;17.50;53.40;19.60;94469.00;;;;10360671;28;45719;-69
2022/06/10 00:53:39;;;;;;;1.10;0.30;;;17.50;53.40;19.60;94465.00;;;;10360382;28;45836;-69
2022/06/10 00:59:05;;;;;;;0.45;0.20;;;17.50;53.40;19.60;94468.00;;;;10358558;28;45797;-69
2022/06/10 01:04:28;;;;;;;0.50;0.25;;;17.50;53.40;19.60;94470.00;;;;10357327;28;45167;-69
2022/06/10 01:09:50;;;;;;;1.38;0.40;;;17.50;53.40;19.60;94472.00;;;;10359461;28;45406;-69
2022/06/10 01:15:24;;;;;;;0.75;0.30;;;17.50;53.40;19.60;94465.00;;;;10360142;28;45475;-69
2022/06/10 01:21:03;;;;;;;1.15;0.50;;;17.50;53.40;19.60;94456.00;;;;10360164;28;45358;-69
2022/06/10 01:32:55;;;;;;;0.90;0.35;;;17.50;53.30;19.50;94454.00;;;;10359131;28;45746;-68
2022/06/10 01:38:24;;;;;;;0.57;0.22;;;17.40;53.40;19.60;94450.00;;;;10358970;28;45821;-69
2022/06/10 01:43:57;;;;;;;0.93;0.40;;;17.50;53.40;19.50;94464.00;;;;10358940;28;45116;-69
2022/06/10 01:49:24;;;;;;;1.67;0.30;;;17.40;53.30;19.50;94468.00;;;;10358897;28;45137;-69
2022/06/10 01:54:50;;;;;;;;;;;17.40;53.30;19.50;94454.00;;;;10358813;28;45229;-69
2022/06/10 02:00:15;;;;;;;0.60;0.32;;;17.40;53.30;19.50;94471.00;;;;10358437;28;45785;-69
2022/06/10 02:05:42;;;;;;;0.75;0.30;;;17.40;53.30;19.50;94466.00;;;;10358162;28;45179;-69
2022/06/10 02:11:06;;;;;;;;;;;17.40;53.30;19.50;94474.00;;;;10358752;28;45183;-69
2022/06/10 02:16:30;;;;;;;0.22;0.20;;;17.40;53.30;19.50;94476.00;;;;10358222;28;45103;-69
2022/06/10 02:21:56;;;;;;;0.60;0.25;;;17.30;53.20;19.40;94470.00;;;;10358077;28;45166;-68
2022/06/10 02:27:22;;;;;;;0.43;0.20;;;17.30;53.30;19.40;94473.00;;;;10357619;28;45296;-69
2022/06/10 02:32:43;;;;;;;1.08;0.38;;;17.30;53.20;19.40;94479.00;;;;10357726;28;45181;-69
2022/06/10 02:38:13;;;;;;;1.50;0.30;;;17.30;53.20;19.40;94484.00;;;;10357689;28;45220;-70
2022/06/10 02:43:41;;;;;;;0.90;0.20;;;17.30;53.20;19.40;94480.00;;;;10357244;28;45746;-69
2022/06/10 02:49:07;;;;;;;2.00;0.30;;;17.30;53.20;19.40;94479.00;;;;10357027;28;45182;-69
2022/06/10 02:54:33;;;;;;;0.88;0.30;;;17.30;53.20;19.40;94486.00;;;;10355865;28;45123;-69
2022/06/10 03:05:41;;;;;;;0.35;0.20;;;17.30;53.10;19.40;94498.00;;;;10356363;28;45216;-69
2022/06/10 03:11:16;;;;;;;0.45;0.30;;;17.30;53.10;19.40;94495.00;;;;10356311;28;45171;-69
2022/06/10 03:16:56;;;;;;;0.40;0.25;;;17.20;53.10;19.40;94507.00;;;;10355984;28;45255;-69
2022/06/10 03:22:29;;;;;;;0.75;0.28;;;17.20;53.10;19.40;94499.00;;;;10356100;28;45298;-70
2022/06/10 03:28:00;;;;;;;1.20;0.40;;;17.20;53.10;19.40;94516.00;;;;10356098;28;45270;-69
2022/06/10 03:33:29;;;;;;;2.25;0.40;;;17.20;53.00;19.40;94513.00;;;;10355758;28;45220;-69
2022/06/10 03:38:52;;;;;;;1.48;0.35;;;17.20;53.00;19.30;94519.00;;;;10355475;28;45218;-68
2022/06/10 03:44:17;;;;;;;1.20;0.38;;;17.20;53.00;19.30;94531.00;;;;10355299;28;45182;-68
2022/06/10 03:49:44;;;;;;;0.55;0.30;;;17.20;53.00;19.30;94514.00;;;;10355095;28;45147;-69
2022/06/10 03:55:08;;;;;;;0.57;0.30;;;17.20;53.00;19.30;94529.00;;;;10355337;28;45872;-69
2022/06/10 04:00:30;;;;;;;1.15;0.20;;;17.20;52.90;19.30;94527.00;;;;10354812;28;45088;-69
2022/06/10 04:05:51;;;;;;;0.88;0.30;;;17.10;52.90;19.30;94534.00;;;;10355068;28;45237;-69
2022/06/10 04:11:11;;;;;;;1.63;0.40;;;17.20;52.90;19.40;94542.00;;;;10362143;28;45754;-69
2022/06/10 04:16:33;;;;;;;0.70;0.30;;;17.30;52.90;19.40;94542.00;;;;10362221;28;45231;-69
2022/06/10 04:21:53;;;;;;;1.23;0.25;;;17.40;52.80;19.50;94552.00;;;;10361741;28;45188;-69
2022/06/10 04:27:14;;;;;;;0.82;0.30;;;17.40;52.70;19.50;94543.00;;;;10361085;28;45167;-69
2022/06/10 04:32:36;;;;;;;0.88;0.38;;;17.40;52.50;19.60;94556.00;;;;10361101;28;45238;-69
2022/06/10 04:37:58;;;;;;;1.05;0.35;;;17.50;52.50;19.60;94544.00;;;;10361146;28;45114;-70
2022/06/10 04:43:19;;;;;;;0.82;0.40;;;17.50;52.40;19.60;94556.00;;;;10360470;28;45188;-69
2022/06/10 04:48:41;;;;;;;1.05;0.40;;;17.50;52.20;19.70;94562.00;;;;10360736;28;45274;-69
2022/06/10 04:54:03;;;;;;;1.17;0.30;;;17.60;52.30;19.70;94561.00;;;;10360710;28;45422;-69
2022/06/10 04:59:24;;;;;;;0.85;0.30;;;17.60;52.20;19.70;94548.00;;;;10359315;28;45211;-69
2022/06/10 05:04:46;;;;;;;1.42;0.47;;;17.60;52.10;19.80;94558.00;;;;10359346;28;45329;-69
2022/06/10 05:10:08;;;;;;;0.85;0.30;;;17.70;52.10;19.80;94571.00;;;;10359888;28;45869;-69
2022/06/10 05:15:29;;;;;;;1.55;0.40;;;17.60;52.00;19.80;94570.00;;;;10359612;28;45207;-69
2022/06/10 05:20:52;;;;;;;1.00;0.40;;;17.70;52.00;19.80;94568.00;;;;10359316;28;45890;-70
2022/06/10 05:26:14;;;;;;;0.80;0.20;;;17.70;52.00;19.80;94549.00;;;;10359362;28;45278;-68
2022/06/10 05:31:35;;;;;;;2.05;0.20;;;17.80;51.90;19.90;94566.00;;;;10359114;28;45203;-69
2022/06/10 05:36:57;;;;;;;0.95;0.30;;;17.80;52.00;19.90;94561.00;;;;10359190;28;45864;-69
2022/06/10 05:42:17;;;;;;;1.17;0.30;;;17.80;51.80;19.90;94560.00;;;;10358942;28;45126;-69
2022/06/10 05:47:38;;;;;;;1.05;0.38;;;17.80;51.90;19.90;94576.00;;;;10358946;28;45143;-69
2022/06/10 05:53:01;;;;;;;1.42;0.38;;;17.80;51.80;19.90;94582.00;;;;10358699;28;45321;-69
2022/06/10 05:58:22;;;;;;;0.70;0.22;;;17.90;51.90;19.90;94571.00;;;;10358468;28;45162;-69
2022/06/10 06:03:42;;;;;;;2.28;0.50;;;17.80;51.80;19.90;94571.00;;;;10358002;28;45247;-69
2022/06/10 06:09:05;;;;;;;1.83;0.40;;;17.90;51.90;19.90;94569.00;;;;10357667;28;45162;-69
2022/06/10 06:14:27;;;;;;;1.98;0.55;;;17.80;50.70;19.90;94584.00;;;;10358231;28;45856;-69
2022/06/10 06:19:48;;;;;;;1.98;0.50;;;17.80;51.40;19.90;94592.00;;;;10356670;28;45119;-69
2022/06/10 06:25:15;;;;;;;1.58;0.50;;;17.80;51.40;20.00;94583.00;;;;10356990;28;45107;-69
2022/06/10 06:30:38;;;;;;;2.90;0.40;;;17.80;51.30;20.00;94591.00;;;;10355945;28;45152;-69
2022/06/10 06:35:58;;;;;;;3.65;0.40;;;17.90;51.30;20.00;94605.00;;;;10356053;28;45838;-69
2022/06/10 06:41:21;;;;;;;1.80;0.50;;;17.90;51.40;20.00;94606.00;;;;10356131;28;45124;-69
2022/06/10 06:46:44;;;;;;;2.75;0.40;;;17.90;51.50;20.00;94599.00;;;;10354797;28;45204;-69
2022/06/10 06:52:08;;;;;;;0.90;0.30;;;17.90;51.50;20.00;94598.00;;;;10354716;28;45328;-69
2022/06/10 06:57:30;;;;;;;2.10;0.60;;;17.90;51.60;20.10;94598.00;;;;10356168;28;45109;-69
2022/06/10 07:02:51;;;;;;;1.95;0.50;;;17.90;51.50;20.00;94599.00;;;;10356053;28;45139;-69
2022/06/10 07:08:12;;;;;;;2.15;0.47;;;17.90;51.50;20.10;94591.00;;;;10355664;28;45237;-69
2022/06/10 07:13:35;;;;;;;0.90;0.40;;;17.90;51.60;20.10;94584.00;;;;10356002;28;45238;-69
2022/06/10 07:18:55;;;;;;;3.60;0.50;;;17.90;51.60;20.10;94585.00;;;;10356021;28;45200;-69
2022/06/10 07:24:16;;;;;;;0.63;0.30;;;17.90;51.70;20.10;94597.00;;;;10355375;28;45262;-70
2022/06/10 07:29:38;;;;;;;1.77;0.30;;;18.00;51.80;20.10;94595.00;;;;10355253;28;45879;-69
2022/06/10 07:34:58;;;;;;;2.58;0.45;;;17.90;51.60;20.10;94600.00;;;;10355434;28;45123;-69
2022/06/10 07:46:05;;;;;;;1.95;0.50;;;17.90;51.90;20.00;94595.00;;;;10338839;28;45776;-69
2022/06/10 07:51:26;;;;;;;1.35;0.40;;;17.90;51.90;20.10;94583.00;;;;10354157;28;45799;-70
2022/06/10 07:56:47;;;;;;;2.13;0.45;;;17.90;52.00;20.10;94597.00;;;;10354420;28;45680;-69
2022/06/10 08:02:10;;;;;;;2.60;0.60;;;17.90;52.00;20.00;94600.00;;;;10354235;28;45854;-69
2022/06/10 08:07:30;;;;;;;1.92;0.60;;;17.90;52.10;20.00;94588.00;;;;10354504;28;45329;-69
2022/06/10 08:12:51;;;;;;;1.08;0.52;;;17.90;52.10;20.10;94582.00;;;;10354380;28;45398;-69
2022/06/10 08:18:15;;;;;;;2.28;0.40;;;18.00;52.10;20.10;94588.00;;;;10353880;28;45694;-69
2022/06/10 08:23:37;;;;;;;1.73;0.57;;;17.90;52.10;20.10;94604.00;;;;10353659;28;45668;-69
2022/06/10 08:29:00;;;;;;;2.88;0.57;;;17.90;52.10;20.10;94599.00;;;;10353375;28;45877;-70
2022/06/10 08:34:22;;;;;;;1.48;0.50;;;17.90;52.10;20.10;94594.00;;;;10353283;28;45220;-68
2022/06/10 08:39:43;;;;;;;3.03;0.45;;;17.90;52.40;20.10;94597.00;;;;10353401;28;45247;-68
2022/06/10 08:45:18;;;;;;;2.55;0.50;;;17.90;52.10;20.10;94605.00;;;;10353860;28;45838;-69
2022/06/10 08:51:13;;;;;;;1.67;0.50;;;18.00;52.10;20.10;94610.00;;;;10353450;28;46052;-69
2022/06/10 08:56:40;;;;;;;2.33;0.40;;;18.00;52.10;20.10;94611.00;;;;10360581;28;45858;-69
2022/06/10 09:02:12;;;;;;;2.33;0.60;;;18.00;52.10;20.10;94607.00;;;;10359779;28;45165;-69
2022/06/10 09:07:50;;;;;;;2.75;0.40;;;18.00;52.10;20.10;94599.00;;;;10359647;28;45162;-69
2022/06/10 09:13:30;;;;;;;0.93;0.30;;;18.00;52.10;20.10;94601.00;;;;10359772;28;45108;-69
2022/06/10 09:19:04;;;;;;;1.58;0.40;;;18.00;52.10;20.10;94607.00;;;;10359477;28;45227;-69
2022/06/10 09:24:31;;;;;;;1.75;0.47;;;18.00;52.10;20.10;94604.00;;;;10359507;28;45221;-70
2022/06/10 09:29:53;;;;;;;1.02;0.40;;;18.00;52.10;20.10;94599.00;;;;10358933;28;45196;-69
2022/06/10 09:35:25;;;;;;;1.33;0.40;;;18.00;52.10;20.10;94608.00;;;;10358603;28;45671;-69
2022/06/10 09:41:02;;;;;;;2.85;0.60;;;18.00;52.10;20.10;94590.00;;;;10358775;28;45671;-70
2022/06/10 09:46:40;;;;;;;0.98;0.30;;;18.00;52.20;20.10;94591.00;;;;10358895;28;45196;-69
2022/06/10 09:52:11;;;;;;;1.20;0.40;;;18.00;52.20;20.10;94602.00;;;;10362725;28;45623;-63
2022/06/10 09:58:02;;;;;;;1.38;0.38;;;18.00;52.00;20.10;94599.00;;;;10398161;28;45667;-65
2022/06/10 10:03:47;;;;;;;1.38;0.55;;;18.00;51.80;20.20;94589.00;;;;10399154;28;45161;-67
2022/06/10 10:09:23;;;;;;;0.80;0.30;;;18.10;51.80;20.20;94592.00;;;;10398196;28;45172;-65
2022/06/10 10:14:58;;;;;;;0.55;0.28;;;18.10;51.70;20.20;94573.00;;;;10389222;28;45718;-66
2022/06/10 10:20:27;;;;;;;2.50;0.50;;;18.10;51.70;20.20;94589.00;;;;10396491;28;45206;-65
2022/06/10 10:25:48;;;;;;;2.20;0.40;;;18.10;51.90;20.20;94572.00;;;;10397328;28;45686;-64
2022/06/10 10:31:18;;;;;;;2.33;0.43;;;18.00;51.90;20.20;94583.00;;;;10398179;28;45953;-65
2022/06/10 10:36:50;;;;;;;1.50;0.30;;;18.00;52.00;20.20;94598.00;;;;10396885;28;45160;-65
2022/06/10 10:42:19;;;;;;;2.05;0.30;;;18.00;52.00;20.10;94569.00;;;;10397089;28;45346;-65
2022/06/10 10:47:50;;;;;;;1.17;0.20;;;18.00;52.10;20.10;94582.00;;;;10396546;28;45151;-65
2022/06/10 10:53:26;;;;;;;1.08;0.30;;;18.00;52.10;20.10;94582.00;;;;10396824;28;45520;-65
2022/06/10 10:58:51;;;;;;;2.27;0.40;;;18.00;51.90;20.10;94575.00;;;;10396957;28;45153;-65
2022/06/10 11:04:19;;;;;;;1.45;0.32;;;18.00;52.00;20.20;94578.00;;;;10354960;28;45179;-65
2022/06/10 11:09:44;;;;;;;2.13;0.50;;;18.00;52.00;20.20;94582.00;;;;10355342;28;45100;-65
2022/06/10 11:15:16;;;;;;;1.00;0.30;;;18.00;52.00;20.10;94567.00;;;;10354909;28;45210;-65
2022/06/10 11:20:38;;;;;;;1.83;0.40;;;18.00;52.00;20.10;94576.00;;;;10355179;28;45210;-65
2022/06/10 11:26:11;;;;;;;0.90;0.30;;;18.00;52.00;20.10;94571.00;;;;10365696;28;45946;-65
2022/06/10 11:31:40;;;;;;;1.88;0.40;;;18.00;52.00;20.20;94568.00;;;;10371588;28;45374;-65
2022/06/10 11:37:20;;;;;;;1.65;0.50;;;18.00;52.00;20.10;94558.00;;;;10354531;28;45416;-65
2022/06/10 11:42:49;;;;;;;1.52;0.40;;;18.00;52.00;20.10;94567.00;;;;10354418;28;45830;-63
2022/06/10 11:48:17;;;;;;;2.55;0.45;;;18.00;52.00;20.10;94569.00;;;;10354346;28;45086;-65
2022/06/10 11:53:48;;;;;;;;;;;18.00;52.00;20.10;94556.00;;;;10354318;28;45206;-65
2022/06/10 12:05:20;;;;;;;0.88;0.40;;;18.00;52.10;20.10;94571.00;;;;10374490;28;45156;-64
2022/06/10 12:10:57;;;;;;;0.65;0.35;;;18.00;52.10;20.10;94561.00;;;;10430537;28;45896;-64
2022/06/10 12:16:18;;;;;;;0.50;0.30;;;18.00;52.00;20.10;94555.00;;;;10395887;28;45795;-65
2022/06/10 12:21:39;;;;;;;1.23;0.40;;;18.00;52.10;20.10;94546.00;;;;10394480;28;45838;-65
2022/06/10 12:27:03;;;;;;;0.77;0.30;;;18.00;52.10;20.10;94548.00;;;;10394894;28;45795;-65
2022/06/10 12:32:31;;;;;;;0.55;0.38;;;17.90;52.10;20.10;94549.00;;;;10401194;28;45166;-65
2022/06/10 12:37:56;;;;;;;1.13;0.30;;;17.90;52.10;20.10;94530.00;;;;10401350;28;45095;-65
2022/06/10 12:43:21;;;;;;;1.60;0.40;;;18.00;52.10;20.10;94528.00;;;;10401240;28;45178;-65
2022/06/10 12:48:46;;;;;;;1.35;0.43;;;17.90;52.00;20.10;94544.00;;;;10400728;28;45717;-65
2022/06/10 12:54:24;;;;;;;0.98;0.40;;;18.00;52.10;20.10;94542.00;;;;10400365;28;45199;-64
2022/06/10 12:59:46;;;;;;;1.10;0.38;;;18.00;52.10;20.10;94537.00;;;;10400728;28;45631;-65
2022/06/10 13:05:26;;;;;;;0.35;0.22;;;18.00;52.00;20.10;94517.00;;;;10400129;28;45186;-64
2022/06/10 13:10:47;;;;;;;0.50;0.30;;;18.00;51.90;20.20;94526.00;;;;10401191;28;45190;-67
2022/06/10 13:16:42;;;;;;;0.55;0.30;;;18.00;51.70;20.20;94527.00;;;;10400110;28;45211;-67
2022/06/10 13:22:32;;;;;;;1.05;0.30;;;18.00;51.70;20.20;94524.00;;;;10400504;28;45163;-67
2022/06/10 13:27:53;;;;;;;0.55;0.30;;;18.10;51.70;20.10;94538.00;;;;10400188;28;45121;-67
2022/06/10 13:33:17;;;;;;;1.60;0.30;;;18.00;51.50;20.20;94523.00;;;;10400128;28;45678;-66
2022/06/10 13:38:38;;;;;;;0.50;0.30;;;18.00;51.50;20.10;94516.00;;;;10399137;28;45148;-67
2022/06/10 13:43:58;;;;;;;2.47;0.60;;;18.00;51.50;20.10;94518.00;;;;10399391;28;45119;-67
2022/06/10 13:49:43;;;;;;;0.90;0.30;;;18.00;51.50;20.10;94516.00;;;;10399190;28;45853;-67
2022/06/10 13:55:26;;;;;;;0.98;0.20;;;18.00;51.50;20.10;94513.00;;;;10399147;28;45125;-67
2022/06/10 14:00:49;;;;;;;0.98;0.30;;;18.00;51.40;20.10;94516.00;;;;10420446;28;45148;-67
2022/06/10 14:06:21;;;;;;;1.55;0.40;;;18.00;51.40;20.10;94502.00;;;;10439558;28;45798;-67
2022/06/10 14:11:45;;;;;;;0.65;0.30;;;18.00;51.50;20.10;94504.00;;;;10416541;28;45162;-66
2022/06/10 14:17:17;;;;;;;0.93;0.30;;;18.00;51.30;20.10;94507.00;;;;10398443;28;45884;-67
2022/06/10 14:22:38;;;;;;;0.60;0.32;;;18.00;51.20;20.10;94500.00;;;;10398312;28;45153;-67
2022/06/10 14:28:13;;;;;;;0.73;0.30;;;18.00;51.10;20.20;94501.00;;;;10398397;28;45247;-67
2022/06/10 14:33:38;;;;;;;1.33;0.40;;;18.00;51.10;20.20;94498.00;;;;10398190;28;45229;-67
2022/06/10 14:39:13;;;;;;;1.02;0.35;;;18.00;51.10;20.20;94481.00;;;;10397825;28;45738;-66
2022/06/10 14:44:53;;;;;;;0.63;0.30;;;18.10;51.00;20.20;94496.00;;;;10364460;28;45311;-66
2022/06/10 14:50:18;;;;;;;0.93;0.30;;;18.00;50.80;20.20;94493.00;;;;10387733;28;45945;-67
2022/06/10 14:55:40;;;;;;;2.35;0.50;;;18.10;51.40;20.20;94492.00;;;;10356260;28;45679;-67
2022/06/10 15:01:01;;;;;;;2.13;0.50;;;18.10;51.30;20.20;94487.00;;;;10355377;28;45185;-67
2022/06/10 15:06:29;;;;;;;1.13;0.35;;;18.10;50.60;20.20;94496.00;;;;10356030;28;45173;-67
2022/06/10 15:11:52;;;;;;;0.60;0.30;;;18.10;50.40;20.20;94474.00;;;;10355996;28;45242;-67
2022/06/10 15:17:14;;;;;;;1.35;0.25;;;18.10;50.30;20.30;94475.00;;;;10352514;28;45472;-67
2022/06/10 15:22:41;;;;;;;0.90;0.30;;;18.10;50.30;20.30;94472.00;;;;10352699;28;45281;-66
2022/06/10 15:28:04;;;;;;;0.55;0.40;;;18.10;50.30;20.30;94478.00;;;;10355068;28;45235;-67
2022/06/10 15:33:26;;;;;;;1.25;0.30;;;18.20;50.30;20.30;94458.00;;;;10355239;28;45825;-67
2022/06/10 15:44:31;;;;;;;0.60;0.20;;;18.20;50.60;20.40;94468.00;;;;10353996;28;45228;-59
2022/06/10 15:49:52;;;;;;;1.60;0.40;;;18.20;50.40;20.40;94470.00;;;;10367081;28;45136;-59
2022/06/10 16:01:11;;;;;;;1.45;0.32;;;18.30;50.50;20.40;94474.00;;;;10394383;28;45682;-59
2022/06/10 16:06:32;;;;;;;0.85;0.30;;;18.30;50.50;20.40;94467.00;;;;10393991;28;46218;-59
2022/06/10 16:17:33;;;;;;;1.08;0.30;;;18.30;50.40;20.40;94470.00;;;;10389546;28;45460;-59
2022/06/10 16:22:55;;;;;;;1.15;0.40;;;18.30;50.50;20.40;94474.00;;;;10389375;28;45332;-59
2022/06/10 16:28:26;;;;;;;0.40;0.20;;;18.30;50.50;20.50;94475.00;;;;10356689;28;45209;-59
2022/06/10 16:33:49;;;;;;;1.05;0.40;;;18.30;50.50;20.50;94468.00;;;;10353495;28;45209;-59
2022/06/10 16:39:10;;;;;;;0.95;0.30;;;18.30;50.50;20.50;94471.00;;;;10352646;28;45108;-58
2022/06/10 16:44:40;;;;;;;0.95;0.30;;;18.40;50.50;20.50;94468.00;;;;10352858;28;45671;-60
2022/06/10 16:50:02;;;;;;;0.70;0.30;;;18.40;50.50;20.50;94469.00;;;;10352280;28;45210;-59
2022/06/10 16:55:22;;;;;;;1.35;0.43;;;18.40;50.50;20.50;94471.00;;;;10352266;28;45669;-58
2022/06/10 17:00:43;;;;;;;1.65;0.20;;;18.40;50.50;20.50;94467.00;;;;10353070;28;45322;-59
2022/06/10 17:06:06;;;;;;;1.23;0.30;;;18.40;50.50;20.50;94450.00;;;;10352571;28;45184;-60
2022/06/10 17:11:33;;;;;;;0.60;0.20;;;18.40;50.50;20.50;94465.00;;;;10359080;28;45148;-59
2022/06/10 17:16:55;;;;;;;0.82;0.20;;;18.40;50.30;20.50;94467.00;;;;10398009;28;45165;-61
2022/06/10 17:22:19;;;;;;;1.05;0.22;;;18.40;50.30;20.50;94454.00;;;;10389050;28;45266;-58
2022/06/10 17:27:40;;;;;;;1.08;0.32;;;18.40;50.40;20.50;94465.00;;;;10358069;28;45885;-59
2022/06/10 17:33:11;;;;;;;0.30;0.22;;;18.40;50.40;20.50;94466.00;;;;10361540;28;45213;-59
2022/06/10 17:38:36;;;;;;;0.95;0.28;;;18.40;50.50;20.50;94468.00;;;;10360118;28;45266;-59
2022/06/10 17:44:00;;;;;;;0.40;0.10;;;18.40;50.50;20.50;94469.00;;;;10376805;28;45160;-59
2022/06/10 17:49:25;;;;;;;0.40;0.20;;;18.40;50.70;20.40;94467.00;;;;10359580;28;45213;-58
2022/06/10 17:54:50;;;;;;;0.85;0.15;;;18.30;50.60;20.40;94459.00;;;;10353097;28;45359;-59
2022/06/10 18:00:21;;;;;;;0.20;0.20;;;18.30;50.70;20.40;94474.00;;;;10391038;28;45868;-59
2022/06/10 18:05:45;;;;;;;0.95;0.30;;;18.30;50.70;20.40;94467.00;;;;10391686;28;45267;-61
2022/06/10 18:11:14;;;;;;;1.38;0.20;;;18.30;50.70;20.40;94478.00;;;;10398431;28;45215;-60
2022/06/10 18:16:41;;;;;;;0.75;0.30;;;18.30;50.80;20.30;94473.00;;;;10397925;28;45322;-59
2022/06/10 18:22:04;;;;;;;;;;;18.20;50.80;20.30;94469.00;;;;10398181;28;45113;-59
2022/06/10 18:27:33;;;;;;;0.35;0.20;;;18.20;50.90;20.30;94473.00;;;;10396382;28;45145;-59
2022/06/10 18:32:54;;;;;;;1.33;0.20;;;18.20;51.00;20.30;94471.00;;;;10397803;28;45126;-59
2022/06/10 18:38:15;;;;;;;0.35;0.20;;;18.10;51.00;20.30;94481.00;;;;10396639;28;45926;-59
2022/06/10 18:43:37;;;;;;;0.85;0.32;;;18.10;51.10;20.20;94488.00;;;;10397623;28;45702;-58
2022/06/10 18:49:00;;;;;;;0.45;0.20;;;18.10;51.20;20.20;94491.00;;;;10396766;28;45183;-59
2022/06/10 18:54:25;;;;;;;0.43;0.30;;;18.10;51.30;20.20;94480.00;;;;10397110;28;45082;-59
2022/06/10 18:59:47;;;;;;;0.47;0.20;;;18.10;51.40;20.20;94470.00;;;;10396035;28;45674;-60
2022/06/10 19:05:16;;;;;;;0.30;0.20;;;18.00;51.40;20.10;94477.00;;;;10396925;28;45223;-59
2022/06/10 19:10:39;;;;;;;1.15;0.30;;;18.00;51.50;20.10;94496.00;;;;10396836;28;45177;-59
2022/06/10 19:16:07;;;;;;;0.55;0.28;;;18.00;51.50;20.10;94497.00;;;;10396069;28;45877;-58
2022/06/10 19:21:35;;;;;;;0.60;0.20;;;18.00;51.60;20.10;94491.00;;;;10396655;28;45237;-59
2022/06/10 19:26:59;;;;;;;0.50;0.30;;;18.00;51.60;20.10;94498.00;;;;10395602;28;45198;-58
2022/06/10 19:32:25;;;;;;;0.70;0.20;;;17.90;51.60;20.10;94499.00;;;;10395791;28;45108;-59
2022/06/10 19:37:46;;;;;;;0.60;0.30;;;17.90;51.60;20.10;94506.00;;;;10394994;28;46019;-58
2022/06/10 19:43:16;;;;;;;0.95;0.20;;;17.90;51.70;20.00;94510.00;;;;10395638;28;45173;-59
2022/06/10 19:48:38;;;;;;;0.50;0.20;;;17.90;51.60;20.00;94519.00;;;;10394585;28;45157;-59
2022/06/10 19:53:58;;;;;;;0.75;0.40;;;17.90;51.70;20.00;94531.00;;;;10395562;28;45269;-59
2022/06/10 19:59:20;;;;;;;0.30;0.30;;;17.80;51.70;20.00;94533.00;;;;10394540;28;45247;-59
2022/06/10 20:04:41;;;;;;;0.55;0.22;;;17.90;51.80;20.00;94531.00;;;;10394660;28;45153;-59
2022/06/10 20:10:09;;;;;;;0.47;0.28;;;17.80;51.70;20.00;94519.00;;;;10390276;28;45473;-59
2022/06/10 20:15:35;;;;;;;0.93;0.30;;;17.80;51.80;19.90;94526.00;;;;10394143;28;45221;-60
2022/06/10 20:20:58;;;;;;;0.40;0.20;;;17.80;51.80;19.90;94539.00;;;;10393927;28;45229;-58
2022/06/10 20:26:25;;;;;;;0.30;0.30;;;17.80;51.90;19.90;94535.00;;;;10394639;28;45761;-58
2022/06/10 20:31:50;;;;;;;0.57;0.30;;;17.70;51.90;19.90;94530.00;;;;10394363;28;45210;-58
2022/06/10 20:37:13;;;;;;;0.40;0.30;;;17.80;51.90;19.90;94535.00;;;;10394440;28;45713;-59
2022/06/10 20:42:33;;;;;;;0.45;0.30;;;17.70;51.90;19.90;94529.00;;;;10393948;28;45861;-60
2022/06/10 20:47:56;;;;;;;1.30;0.50;;;17.70;52.00;19.90;94523.00;;;;10394501;28;47323;-60
2022/06/10 20:53:19;;;;;;;0.57;0.30;;;17.70;52.00;19.80;94512.00;;;;10401568;28;45225;-60
2022/06/10 20:58:41;;;;;;;1.20;0.40;;;17.70;52.00;19.80;94515.00;;;;10400980;28;45116;-59
2022/06/10 21:09:48;;;;;;;1.00;0.50;;;17.70;51.90;19.80;94527.00;;;;10400476;28;45225;-58
2022/06/10 21:15:14;;;;;;;0.68;0.40;;;17.70;52.00;19.80;94517.00;;;;10401332;28;45913;-58
2022/06/10 21:20:43;;;;;;;1.20;0.43;;;17.70;52.60;19.80;94528.00;;;;10400686;28;45667;-58
2022/06/10 21:26:06;;;;;;;0.55;0.30;;;17.70;52.10;19.80;94532.00;;;;10400313;28;45105;-60
2022/06/10 21:31:38;;;;;;;0.47;0.40;;;17.60;52.00;19.80;94525.00;;;;10399873;28;45153;-59
2022/06/10 21:37:02;;;;;;;0.80;0.40;;;17.60;52.00;19.80;94518.00;;;;10400040;28;45182;-58
2022/06/10 21:48:15;;;;;;;0.70;0.40;;;17.60;52.00;19.80;94525.00;;;;10398471;28;45737;-61
2022/06/10 21:53:40;;;;;;;0.88;0.32;;;17.60;52.00;19.70;94515.00;;;;10398644;28;45905;-59
2022/06/10 21:59:07;;;;;;;1.48;0.40;;;17.60;52.70;19.70;94516.00;;;;10397569;28;45188;-59
2022/06/10 22:04:35;;;;;;;0.52;0.40;;;17.60;52.00;19.70;94512.00;;;;10398625;28;45856;-61
2022/06/10 22:09:59;;;;;;;1.27;0.45;;;17.60;52.10;19.70;94509.00;;;;10398236;28;45810;-59
2022/06/10 22:15:24;;;;;;;0.68;0.40;;;17.60;52.00;19.70;94517.00;;;;10398000;28;45758;-60
2022/06/10 22:20:47;;;;;;;1.05;0.50;;;17.60;52.00;19.70;94523.00;;;;10397630;28;45841;-61
2022/06/10 22:26:11;;;;;;;0.60;0.40;;;17.60;52.10;19.70;94516.00;;;;10397371;28;45176;-60
2022/06/10 22:31:33;;;;;;;1.45;0.30;;;17.60;52.00;19.70;94517.00;;;;10396840;28;45160;-60
2022/06/10 22:36:55;;;;;;;0.73;0.40;;;17.50;52.00;19.70;94526.00;;;;10397760;28;45838;-58
2022/06/10 22:42:16;;;;;;;0.68;0.32;;;17.50;52.00;19.70;94532.00;;;;10397560;28;45355;-60
2022/06/10 22:47:40;;;;;;;0.82;0.43;;;17.50;52.00;19.70;94533.00;;;;10396890;28;45156;-60
2022/06/10 22:53:01;;;;;;;1.10;0.30;;;17.50;52.00;19.60;94520.00;;;;10396714;28;45849;-59
2022/06/10 22:58:25;;;;;;;1.08;0.45;;;17.50;52.00;19.60;94533.00;;;;10396007;28;45420;-59
2022/06/10 23:03:51;;;;;;;0.57;0.30;;;17.50;52.00;19.60;94519.00;;;;10396286;28;45415;-59
2022/06/10 23:14:59;;;;;;;2.30;0.30;;;17.50;52.00;19.60;94535.00;;;;10395790;28;45845;-60
2022/06/10 23:20:27;;;;;;;0.40;0.32;;;17.50;52.00;19.60;94518.00;;;;10396482;28;45196;-60
2022/06/10 23:25:51;;;;;;;1.27;0.40;;;17.50;52.70;19.60;94527.00;;;;10396465;28;45199;-59
2022/06/10 23:31:16;;;;;;;1.27;0.30;;;17.50;52.00;19.60;94518.00;;;;10396425;28;45806;-58
2022/06/10 23:36:43;;;;;;;0.85;0.30;;;17.40;52.00;19.60;94524.00;;;;10396118;28;45149;-58
2022/06/10 23:42:07;;;;;;;0.82;0.50;;;17.50;52.00;19.60;94527.00;;;;10395556;28;45718;-60
2022/06/10 23:53:18;;;;;;;0.80;0.40;;;17.40;52.10;19.50;94522.00;;;;10395254;28;46625;-59
2022/06/10 23:58:46;;;;;;;1.20;0.30;;;17.40;52.00;19.50;94516.00;;;;10394694;28;45238;-58
